Time;durP1;ratioP1;P1;durP2;ratioP2;P2;SDS_P1;SDS_P2;PMS_P1;PMS_P2;Temp;Humidity;BMP_temperature;BMP_pressure;BME280_temperature;BME280_humidity;BME280_pressure;Samples;Min_cycle;Max_cycle;Signal;HPM_P1;HPM_P2
2022/02/14 00:01:11;;;;;;;4.22;1.52;;;;;;;5.56;98.18;100086.22;6349422;28;20507;-79
2022/02/14 00:04:12;;;;;;;7.93;2.25;;;;;;;5.54;98.59;100080.22;6350536;28;20052;-79
2022/02/14 00:07:13;;;;;;;4.63;1.50;;;;;;;5.58;98.83;100084.38;6350875;28;20054;-79
2022/02/14 00:10:15;;;;;;;6.05;2.00;;;;;;;5.53;98.15;100079.38;6350610;28;20055;-78
2022/02/14 00:13:17;;;;;;;2.05;1.55;;;;;;;5.53;98.40;100076.78;6350338;28;20044;-79
2022/02/14 00:16:19;;;;;;;2.67;1.50;;;;;;;5.62;98.46;100072.06;6350667;28;20040;-78
2022/02/14 00:19:20;;;;;;;2.80;1.70;;;;;;;5.55;99.05;100066.31;6350011;28;20141;-78
2022/02/14 00:22:22;;;;;;;1.98;1.50;;;;;;;5.47;99.61;100061.41;6350002;28;20130;-79
2022/02/14 00:25:23;;;;;;;4.05;1.70;;;;;;;5.42;100.00;100058.16;6350197;28;20450;-79
2022/02/14 00:28:26;;;;;;;3.42;1.40;;;;;;;5.44;100.00;100051.13;6349768;28;20050;-78
2022/02/14 00:31:27;;;;;;;3.10;1.65;;;;;;;5.45;100.00;100050.22;6349980;28;20048;-79
2022/02/14 00:34:29;;;;;;;1.52;1.13;;;;;;;5.63;99.00;100050.31;6350029;28;20043;-79
2022/02/14 00:37:30;;;;;;;1.65;1.40;;;;;;;5.66;98.82;100050.19;6349825;28;20048;-79
2022/02/14 00:40:31;;;;;;;2.67;1.15;;;;;;;5.67;99.12;100038.84;6348764;28;20059;-78
2022/02/14 00:43:34;;;;;;;3.25;1.50;;;;;;;5.74;97.81;100035.06;6349641;28;20051;-79
2022/02/14 00:46:35;;;;;;;1.65;1.25;;;;;;;5.73;99.18;100026.38;6349645;28;20051;-79
2022/02/14 00:49:37;;;;;;;2.75;1.52;;;;;;;5.82;98.56;100031.19;6349612;28;20059;-78
2022/02/14 00:52:39;;;;;;;5.88;1.92;;;;;;;5.82;98.46;100025.97;6349348;28;20395;-79
2022/02/14 00:55:41;;;;;;;2.63;1.60;;;;;;;5.89;97.44;100028.28;6349438;28;20047;-79
2022/02/14 00:58:43;;;;;;;4.40;1.60;;;;;;;5.97;96.47;100019.25;6349545;28;20039;-79
2022/02/14 01:01:45;;;;;;;3.55;1.55;;;;;;;5.98;97.01;100015.72;6349092;28;20047;-79
2022/02/14 01:04:46;;;;;;;1.77;1.02;;;;;;;6.02;96.95;100016.41;6349293;28;20044;-79
2022/02/14 01:07:47;;;;;;;2.65;1.27;;;;;;;6.07;95.61;100002.25;6349193;28;20054;-79
2022/02/14 01:10:49;;;;;;;1.40;0.98;;;;;;;6.02;96.53;100011.19;6348931;28;20055;-79
2022/02/14 01:13:53;;;;;;;1.67;1.10;;;;;;;6.04;97.29;100010.22;6348996;28;20048;-78
2022/02/14 01:16:57;;;;;;;4.90;1.75;;;;;;;5.92;97.71;99997.75;6348982;28;20075;-78
2022/02/14 01:19:58;;;;;;;3.72;1.40;;;;;;;5.97;97.21;99998.38;6348712;28;20407;-78
2022/02/14 01:23:00;;;;;;;4.43;1.45;;;;;;;6.02;96.49;99996.41;6348711;28;20054;-78
2022/02/14 01:26:01;;;;;;;2.30;1.20;;;;;;;6.04;96.53;99988.47;6348847;28;20177;-78
2022/02/14 01:29:04;;;;;;;2.17;1.30;;;;;;;6.06;95.98;99992.72;6349109;28;20050;-78
2022/02/14 01:32:06;;;;;;;2.83;1.23;;;;;;;6.03;97.43;99982.44;6348311;28;20047;-79
2022/02/14 01:35:08;;;;;;;6.95;0.93;;;;;;;6.03;97.27;99985.03;6348589;28;20044;-79
2022/02/14 01:38:09;;;;;;;1.52;1.13;;;;;;;6.17;95.52;99979.16;6348519;28;20044;-79
2022/02/14 01:41:11;;;;;;;4.45;1.77;;;;;;;6.14;96.95;99968.91;6346901;28;20039;-78
2022/02/14 01:44:32;;;;;;;2.92;1.63;;;;;;;6.13;97.61;99963.72;6348377;28;20149;-79
2022/02/14 01:47:34;;;;;;;3.22;1.67;;;;;;;6.11;97.90;99953.38;6341733;28;20054;-79
2022/02/14 01:50:35;;;;;;;2.08;1.38;;;;;;;6.16;97.76;99953.16;6347674;28;20052;-79
2022/02/14 01:53:37;;;;;;;5.63;1.30;;;;;;;6.17;96.13;99950.47;6347888;28;20422;-79
2022/02/14 01:56:38;;;;;;;1.63;1.23;;;;;;;6.22;97.10;99955.47;6347992;28;20047;-78
2022/02/14 01:59:42;;;;;;;3.13;1.60;;;;;;;6.28;94.92;99950.81;6344756;28;20047;-79
2022/02/14 02:02:44;;;;;;;11.10;1.50;;;;;;;6.25;95.53;99950.97;6354428;28;20125;-78
2022/02/14 02:05:46;;;;;;;1.88;0.93;;;;;;;6.17;95.82;99947.03;6354112;28;20048;-77
2022/02/14 02:08:47;;;;;;;1.50;1.02;;;;;;;6.18;96.05;99933.09;6354206;28;20063;-78
2022/02/14 02:15:11;;;;;;;1.55;1.15;;;;;;;6.13;96.21;99922.84;6353695;28;20519;-77
2022/02/14 02:18:12;;;;;;;1.70;1.23;;;;;;;6.13;96.81;99915.00;6354240;28;20047;-78
2022/02/14 02:21:13;;;;;;;2.08;1.05;;;;;;;6.00;98.15;99906.97;6352484;28;20457;-77
2022/02/14 02:24:19;;;;;;;3.28;1.48;;;;;;;5.99;97.16;99907.84;6352904;28;20367;-78
2022/02/14 02:27:25;;;;;;;1.38;1.25;;;;;;;5.98;98.39;99906.16;6352499;28;20074;-77
2022/02/14 02:30:27;;;;;;;2.10;1.23;;;;;;;6.03;98.04;99893.75;6353554;28;20047;-76
2022/02/14 02:33:30;;;;;;;2.35;1.02;;;;;;;6.04;97.97;99887.66;6353303;28;20419;-78
2022/02/14 02:36:31;;;;;;;4.28;1.67;;;;;;;5.98;98.32;99887.91;6353138;28;20043;-78
2022/02/14 02:39:33;;;;;;;1.30;1.02;;;;;;;6.11;98.65;99882.97;6353061;28;20055;-77
2022/02/14 02:42:36;;;;;;;4.47;1.20;;;;;;;6.14;98.62;99876.75;6354119;28;20047;-77
2022/02/14 02:45:37;;;;;;;1.58;0.98;;;;;;;6.14;98.27;99867.16;6353046;28;20047;-77
2022/02/14 02:48:39;;;;;;;9.07;1.67;;;;;;;6.10;98.02;99866.47;6353897;28;20058;-78
2022/02/14 02:51:41;;;;;;;1.77;1.15;;;;;;;6.01;98.34;99858.25;6352680;28;20448;-78
2022/02/14 02:54:44;;;;;;;3.05;1.15;;;;;;;5.93;99.22;99863.81;6353559;28;20043;-78
2022/02/14 02:57:47;;;;;;;3.63;1.27;;;;;;;5.88;100.00;99863.19;6353578;28;20486;-77
2022/02/14 03:00:48;;;;;;;3.78;1.73;;;;;;;5.74;100.00;99860.41;6352987;28;20177;-78
2022/02/14 03:03:50;;;;;;;3.60;2.25;;;;;;;5.71;100.00;99844.88;6357996;28;20051;-78
2022/02/14 03:06:51;;;;;;;2.50;1.23;;;;;;;5.65;100.00;99851.25;6359866;28;20050;-77
2022/02/14 03:09:52;;;;;;;1.95;0.90;;;;;;;5.61;100.00;99841.88;6359365;28;20062;-79
2022/02/14 03:12:55;;;;;;;5.03;1.42;;;;;;;5.56;100.00;99846.47;6360176;28;20051;-77
2022/02/14 03:15:56;;;;;;;2.22;1.20;;;;;;;5.61;100.00;99839.28;6359534;28;20043;-78
2022/02/14 03:18:58;;;;;;;8.98;0.65;;;;;;;5.71;100.00;99827.47;6358562;28;20048;-79
2022/02/14 03:21:59;;;;;;;1.40;1.10;;;;;;;5.74;100.00;99823.91;6359405;28;20051;-78
2022/02/14 03:25:01;;;;;;;3.65;0.90;;;;;;;5.89;100.00;99827.50;6359742;28;20047;-78
2022/02/14 03:28:04;;;;;;;2.50;1.67;;;;;;;5.84;100.00;99820.75;6360072;28;20047;-78
2022/02/14 03:31:05;;;;;;;2.33;1.02;;;;;;;5.94;99.92;99818.56;6359203;28;20051;-78
2022/02/14 03:34:07;;;;;;;2.47;1.17;;;;;;;5.92;100.00;99812.59;6358272;28;20089;-77
2022/02/14 03:37:08;;;;;;;3.85;1.35;;;;;;;5.78;100.00;99812.41;6356835;28;20065;-77
2022/02/14 03:40:10;;;;;;;3.00;1.58;;;;;;;5.80;100.00;99807.94;6354018;28;20043;-78
2022/02/14 03:43:13;;;;;;;2.25;1.15;;;;;;;5.78;100.00;99808.03;6357722;28;20054;-77
2022/02/14 03:46:14;;;;;;;4.93;1.63;;;;;;;5.79;100.00;99801.06;6357010;28;20053;-78
2022/02/14 03:49:16;;;;;;;2.15;1.35;;;;;;;5.86;100.00;99789.41;6357718;28;20050;-77
2022/02/14 03:52:17;;;;;;;3.95;0.93;;;;;;;5.90;100.00;99790.09;6357004;28;20517;-77
2022/02/14 03:55:20;;;;;;;1.20;0.90;;;;;;;6.04;100.00;99787.66;6356307;28;20052;-78
2022/02/14 03:58:22;;;;;;;4.35;1.20;;;;;;;6.03;99.60;99786.81;6348894;28;20145;-78
2022/02/14 04:01:24;;;;;;;6.53;1.23;;;;;;;6.07;98.80;99795.34;6349768;27;20055;-78
2022/02/14 04:04:25;;;;;;;0.80;0.80;;;;;;;6.02;99.99;99786.91;6342140;27;20052;-78
2022/02/14 04:07:27;;;;;;;2.10;1.20;;;;;;;5.97;99.91;99781.09;6346465;28;20048;-78
2022/02/14 04:10:28;;;;;;;2.58;1.20;;;;;;;5.99;100.00;99776.63;6356585;28;20622;-78
2022/02/14 04:13:31;;;;;;;1.60;0.95;;;;;;;6.00;99.81;99773.13;6356256;28;20052;-78
2022/02/14 04:16:32;;;;;;;4.00;1.58;;;;;;;5.91;100.00;99766.56;6356468;28;20054;-77
2022/02/14 04:19:34;;;;;;;1.40;1.00;;;;;;;5.85;100.00;99770.28;6357059;28;20048;-77
2022/02/14 04:22:37;;;;;;;1.85;0.98;;;;;;;5.83;100.00;99766.09;6355693;28;20398;-78
2022/02/14 04:25:38;;;;;;;3.28;0.80;;;;;;;6.00;100.00;99762.69;6354225;28;20052;-77
2022/02/14 04:28:41;;;;;;;2.78;1.40;;;;;;;5.99;99.64;99764.41;6340435;28;20051;-78
2022/02/14 04:31:42;;;;;;;3.28;1.17;;;;;;;5.93;99.65;99764.75;6340841;28;20044;-78
2022/02/14 04:34:43;;;;;;;1.45;0.90;;;;;;;5.96;99.21;99762.00;6341232;28;20055;-77
2022/02/14 04:37:45;;;;;;;4.72;1.45;;;;;;;5.92;100.00;99757.84;6338911;28;20483;-78
2022/02/14 04:40:46;;;;;;;3.47;1.10;;;;;;;6.03;99.31;99760.75;6341488;28;20048;-78
2022/02/14 04:43:49;;;;;;;1.60;1.10;;;;;;;6.02;98.72;99759.06;6352647;28;20047;-78
2022/02/14 04:46:50;;;;;;;8.55;1.20;;;;;;;6.05;98.99;99755.47;6355774;28;20051;-78
2022/02/14 04:49:51;;;;;;;1.17;0.90;;;;;;;6.10;99.04;99753.47;6356096;28;20044;-78
2022/02/14 04:52:53;;;;;;;1.52;0.80;;;;;;;6.06;98.90;99746.72;6355047;28;20055;-78
2022/02/14 04:55:55;;;;;;;2.50;1.17;;;;;;;6.04;100.00;99746.81;6354132;28;20217;-77
2022/02/14 04:58:58;;;;;;;2.42;1.63;;;;;;;5.94;100.00;99748.16;6354740;28;20110;-78
2022/02/14 05:01:59;;;;;;;8.55;1.38;;;;;;;5.88;100.00;99745.84;6353781;28;20521;-78
2022/02/14 05:05:00;;;;;;;3.28;1.50;;;;;;;5.84;100.00;99741.72;6353469;28;20230;-78
2022/02/14 05:08:02;;;;;;;2.55;1.15;;;;;;;5.82;100.00;99744.41;6354701;28;20050;-78
2022/02/14 05:11:03;;;;;;;5.85;1.30;;;;;;;5.87;100.00;99745.94;6355037;28;20514;-78
2022/02/14 05:14:06;;;;;;;3.13;1.17;;;;;;;5.91;99.62;99756.13;6355834;27;20051;-78
2022/02/14 05:17:07;;;;;;;2.38;1.38;;;;;;;5.91;99.66;99753.53;6354414;28;20521;-77
2022/02/14 05:20:09;;;;;;;2.47;1.02;;;;;;;5.93;99.00;99751.69;6355592;28;20054;-78
2022/02/14 05:23:11;;;;;;;2.25;1.10;;;;;;;5.98;98.11;99751.47;6355064;27;20047;-78
2022/02/14 05:26:12;;;;;;;4.32;1.45;;;;;;;5.88;99.44;99753.66;6355706;28;20056;-77
2022/02/14 05:29:15;;;;;;;5.00;1.42;;;;;;;5.85;99.42;99756.41;6355677;28;20054;-77
2022/02/14 05:32:16;;;;;;;4.45;1.52;;;;;;;5.83;99.23;99753.06;6354206;28;20052;-78
2022/02/14 05:35:18;;;;;;;2.50;1.30;;;;;;;5.72;100.00;99740.56;6354233;28;20047;-77
2022/02/14 05:38:19;;;;;;;1.98;0.80;;;;;;;5.67;100.00;99747.75;6354842;28;20134;-77
2022/02/14 05:41:21;;;;;;;4.18;1.20;;;;;;;5.65;100.00;99759.19;6351552;28;20044;-77
2022/02/14 05:44:24;;;;;;;2.15;1.45;;;;;;;5.80;100.00;99748.00;6354215;28;20051;-77
2022/02/14 05:47:26;;;;;;;3.03;0.93;;;;;;;5.76;100.00;99752.50;6353993;28;20054;-77
2022/02/14 05:50:27;;;;;;;3.17;0.95;;;;;;;5.72;100.00;99744.91;6354401;27;20051;-77
2022/02/14 05:53:28;;;;;;;2.90;1.15;;;;;;;5.68;100.00;99736.44;6352780;27;20048;-78
2022/02/14 05:56:30;;;;;;;8.00;1.10;;;;;;;5.74;100.00;99749.16;6352145;28;20047;-78
2022/02/14 05:59:33;;;;;;;6.93;1.27;;;;;;;5.77;100.00;99746.41;6346925;28;20732;-78
2022/02/14 06:02:34;;;;;;;0.70;0.60;;;;;;;5.71;100.00;99745.84;6349839;28;20055;-78
2022/02/14 06:05:36;;;;;;;2.83;1.23;;;;;;;5.65;100.00;99746.16;6351409;28;20055;-77
2022/02/14 06:08:37;;;;;;;3.03;1.63;;;;;;;5.67;100.00;99752.97;6353601;28;20126;-78
2022/02/14 06:11:38;;;;;;;1.52;1.15;;;;;;;5.67;100.00;99757.34;6352748;28;20070;-78
2022/02/14 06:14:41;;;;;;;2.03;1.20;;;;;;;5.63;100.00;99751.41;6353323;28;20513;-78
2022/02/14 06:17:42;;;;;;;2.78;1.00;;;;;;;5.64;100.00;99747.06;6354960;28;20043;-78
2022/02/14 06:20:44;;;;;;;1.65;1.08;;;;;;;5.59;100.00;99769.00;6354759;28;20047;-78
2022/02/14 06:23:45;;;;;;;2.25;0.93;;;;;;;5.54;100.00;99760.56;6352436;28;20055;-78
2022/02/14 06:26:47;;;;;;;5.45;1.40;;;;;;;5.52;100.00;99759.78;6342616;28;20044;-78
2022/02/14 06:29:49;;;;;;;3.20;1.52;;;;;;;5.52;100.00;99761.53;6346544;28;20050;-77
2022/02/14 06:32:53;;;;;;;1.40;1.00;;;;;;;5.58;100.00;99750.81;6349997;28;20044;-78
2022/02/14 06:35:55;;;;;;;1.83;0.80;;;;;;;5.67;100.00;99747.75;6295471;27;20112;-78
2022/02/14 06:38:57;;;;;;;1.65;1.20;;;;;;;5.87;100.00;99744.16;6318184;28;20055;-77
2022/02/14 06:41:59;;;;;;;4.57;0.88;;;;;;;6.04;100.00;99754.63;6288716;28;20049;-76
2022/02/14 06:45:02;;;;;;;0.52;0.52;;;;;;;6.14;100.00;99757.63;6271939;28;20048;-77
2022/02/14 06:48:04;;;;;;;1.20;0.93;;;;;;;6.05;100.00;99758.91;6274033;28;20048;-77
2022/02/14 06:51:06;;;;;;;3.45;1.50;;;;;;;6.03;100.00;99754.69;6273148;28;20052;-78
2022/02/14 06:54:07;;;;;;;1.45;0.88;;;;;;;6.10;100.00;99753.47;6271500;28;20060;-77
2022/02/14 06:57:08;;;;;;;1.33;1.02;;;;;;;6.08;100.00;99742.25;6272807;28;20270;-78
2022/02/14 07:00:14;;;;;;;3.13;1.33;;;;;;;6.25;100.00;99744.84;6272580;28;20052;-77
2022/02/14 07:03:15;;;;;;;7.00;1.10;;;;;;;6.47;98.72;99739.34;6273612;28;20056;-77
2022/02/14 07:06:17;;;;;;;5.63;1.48;;;;;;;6.54;98.48;99742.47;6273994;28;20056;-78
2022/02/14 07:09:18;;;;;;;2.28;1.00;;;;;;;6.53;98.01;99746.00;6274615;28;20076;-78
2022/02/14 07:12:20;;;;;;;3.10;1.45;;;;;;;6.47;98.98;99749.78;6274744;28;20060;-79
2022/02/14 07:15:22;;;;;;;1.67;1.00;;;;;;;6.55;98.69;99744.19;6277007;28;20060;-78
2022/02/14 07:18:25;;;;;;;0.85;0.80;;;;;;;6.64;97.79;99745.47;6296037;28;20048;-77
2022/02/14 07:21:26;;;;;;;2.40;1.45;;;;;;;6.59;96.81;99743.09;6294671;28;20059;-78
2022/02/14 07:24:27;;;;;;;2.10;0.77;;;;;;;6.57;98.25;99737.94;6284964;28;20407;-78
2022/02/14 07:27:29;;;;;;;1.40;0.88;;;;;;;6.73;97.02;99744.97;6301335;28;20051;-78
2022/02/14 07:30:32;;;;;;;4.10;1.02;;;;;;;6.76;98.08;99729.13;6294450;28;20412;-78
2022/02/14 07:33:33;;;;;;;2.15;1.08;;;;;;;6.74;98.16;99731.00;6293071;28;20131;-77
2022/02/14 07:36:34;;;;;;;2.00;1.05;;;;;;;6.74;98.13;99733.59;6301499;28;20385;-78
2022/02/14 07:39:36;;;;;;;4.97;1.05;;;;;;;6.76;98.31;99729.97;6300581;28;20507;-78
2022/02/14 07:42:37;;;;;;;3.67;0.90;;;;;;;6.80;97.69;99728.88;6301835;28;20519;-78
2022/02/14 07:45:41;;;;;;;1.95;1.00;;;;;;;6.84;97.61;99726.94;6300079;28;20619;-78
2022/02/14 07:48:46;;;;;;;2.17;1.10;;;;;;;6.97;97.28;99719.28;6302824;28;20162;-78
2022/02/14 07:51:48;;;;;;;3.63;1.05;;;;;;;7.06;96.35;99719.63;6304050;28;20040;-78
2022/02/14 07:54:49;;;;;;;2.45;1.15;;;;;;;7.22;96.46;99716.16;6296926;28;20074;-78
2022/02/14 07:57:51;;;;;;;1.67;0.75;;;;;;;7.19;95.96;99716.34;6300224;28;20037;-78
2022/02/14 08:00:53;;;;;;;3.42;0.95;;;;;;;7.30;96.15;99712.19;6295153;28;20435;-79
2022/02/14 08:03:55;;;;;;;2.08;1.00;;;;;;;7.34;95.39;99720.69;6283900;28;20056;-79
2022/02/14 08:06:56;;;;;;;2.35;0.68;;;;;;;7.45;95.63;99713.09;6275681;28;20069;-78
2022/02/14 08:09:58;;;;;;;8.23;1.27;;;;;;;7.53;95.98;99702.19;6283435;28;20049;-78
2022/02/14 08:12:59;;;;;;;3.33;1.02;;;;;;;7.59;95.23;99715.75;6275075;28;20404;-80
2022/02/14 08:16:02;;;;;;;3.92;1.33;;;;;;;7.58;95.55;99721.91;6282308;28;20056;-79
2022/02/14 08:19:04;;;;;;;4.15;1.38;;;;;;;7.66;95.81;99713.63;6288204;28;20416;-79
2022/02/14 08:22:05;;;;;;;1.40;1.00;;;;;;;7.70;94.94;99724.75;6299744;28;20411;-79
2022/02/14 08:25:07;;;;;;;5.75;1.30;;;;;;;7.76;95.81;99724.38;6300201;28;20052;-80
2022/02/14 08:28:09;;;;;;;3.65;0.93;;;;;;;7.83;95.06;99728.34;6299752;28;20045;-79
2022/02/14 08:31:12;;;;;;;1.30;1.10;;;;;;;7.92;94.82;99721.72;6299673;28;20048;-78
2022/02/14 08:34:14;;;;;;;2.75;1.10;;;;;;;8.08;94.21;99710.28;6299968;28;20052;-79
2022/02/14 08:37:15;;;;;;;1.63;1.17;;;;;;;8.08;94.80;99715.50;6299556;28;20049;-80
2022/02/14 08:40:17;;;;;;;3.50;0.80;;;;;;;8.21;93.89;99717.38;6289671;28;20060;-80
2022/02/14 08:43:18;;;;;;;1.83;1.20;;;;;;;8.22;95.66;99700.72;6289158;28;20060;-79
2022/02/14 08:46:22;;;;;;;2.75;0.70;;;;;;;8.30;94.41;99706.34;6287088;28;20052;-79
2022/02/14 08:49:24;;;;;;;3.30;0.90;;;;;;;8.38;94.45;99706.75;6286797;28;20056;-79
2022/02/14 08:52:27;;;;;;;1.00;0.90;;;;;;;8.44;95.16;99705.53;6296186;28;20048;-79
2022/02/14 08:55:28;;;;;;;2.58;1.27;;;;;;;8.45;94.15;99708.09;6299201;28;20056;-80
2022/02/14 08:58:30;;;;;;;1.15;0.70;;;;;;;8.52;95.30;99692.81;6299123;28;20131;-78
2022/02/14 09:01:32;;;;;;;2.53;1.50;;;;;;;8.57;93.91;99696.84;6285594;28;20423;-79
2022/02/14 09:04:34;;;;;;;1.45;0.95;;;;;;;8.76;93.66;99708.78;6279322;28;20048;-80
2022/02/14 09:07:35;;;;;;;1.10;0.80;;;;;;;8.79;93.48;99705.97;6283930;28;20508;-79
2022/02/14 09:10:36;;;;;;;2.53;0.95;;;;;;;8.92;93.29;99700.81;6281700;28;20048;-78
2022/02/14 09:13:38;;;;;;;2.72;0.80;;;;;;;9.00;93.53;99698.56;6287517;28;20044;-80
2022/02/14 09:16:42;;;;;;;1.60;0.77;;;;;;;9.03;91.95;99700.97;6282148;28;20427;-79
2022/02/14 09:19:44;;;;;;;1.13;0.93;;;;;;;9.10;91.27;99715.38;6289196;28;20052;-79
2022/02/14 09:22:45;;;;;;;1.67;0.70;;;;;;;9.15;91.99;99706.28;6282441;28;20049;-78
2022/02/14 09:25:47;;;;;;;5.40;1.05;;;;;;;9.23;91.25;99700.53;6284406;28;20040;-81
2022/02/14 09:28:48;;;;;;;3.92;1.00;;;;;;;9.19;92.76;99701.69;6283643;28;20043;-81
2022/02/14 09:31:53;;;;;;;1.23;1.00;;;;;;;9.18;92.38;99707.03;6280891;28;20052;-79
2022/02/14 09:34:54;;;;;;;3.90;1.13;;;;;;;9.18;92.61;99696.53;6277904;28;20045;-79
2022/02/14 09:37:56;;;;;;;1.08;0.80;;;;;;;9.19;92.13;99698.22;6298153;28;20045;-81
2022/02/14 09:40:59;;;;;;;2.63;1.10;;;;;;;9.21;92.75;99698.94;6297889;28;20416;-79
2022/02/14 09:44:01;;;;;;;3.03;0.90;;;;;;;9.35;93.62;99707.59;6286371;28;20044;-80
2022/02/14 09:47:06;;;;;;;3.42;0.85;;;;;;;9.26;91.98;99696.88;6279217;28;20082;-80
2022/02/14 09:50:10;;;;;;;3.10;0.90;;;;;;;9.45;91.26;99702.63;6297775;28;20515;-79
2022/02/14 09:53:15;;;;;;;3.35;0.80;;;;;;;9.74;90.54;99699.84;6298128;28;20048;-81
2022/02/14 09:56:16;;;;;;;1.05;0.70;;;;;;;9.87;90.13;99708.59;6297761;28;20080;-79
2022/02/14 09:59:19;;;;;;;1.20;0.93;;;;;;;9.98;90.72;99708.69;6297724;28;20049;-79
2022/02/14 10:02:26;;;;;;;5.05;1.20;;;;;;;10.09;89.16;99711.44;6297629;28;20052;-79
2022/02/14 10:05:31;;;;;;;1.30;0.75;;;;;;;10.16;88.41;99707.44;6297544;28;20050;-79
2022/02/14 10:08:35;;;;;;;4.15;1.15;;;;;;;10.17;88.89;99716.16;6298346;28;20048;-79
2022/02/14 10:11:42;;;;;;;2.05;1.40;;;;;;;10.26;88.42;99710.31;6296718;28;20480;-80
2022/02/14 10:14:44;;;;;;;1.98;0.90;;;;;;;10.31;88.68;99726.59;6297804;28;20052;-78
2022/02/14 10:17:48;;;;;;;5.50;0.98;;;;;;;10.35;87.99;99724.59;6293384;28;20041;-76
2022/02/14 10:20:50;;;;;;;5.47;0.90;;;;;;;10.38;88.43;99716.50;6272741;28;20500;-77
2022/02/14 10:24:00;;;;;;;3.42;0.70;;;;;;;10.43;87.80;99716.19;6286891;28;20419;-77
2022/02/14 10:27:01;;;;;;;2.00;1.00;;;;;;;10.58;87.18;99726.50;6297255;28;20056;-78
2022/02/14 10:30:11;;;;;;;1.65;0.82;;;;;;;10.49;88.48;99721.00;6296940;28;20060;-79
2022/02/14 10:33:14;;;;;;;3.42;0.80;;;;;;;10.59;87.81;99728.16;6297437;28;20423;-79
2022/02/14 10:36:29;;;;;;;2.05;0.77;;;;;;;10.41;88.51;99745.19;6297262;28;20052;-79
2022/02/14 10:39:33;;;;;;;2.33;1.05;;;;;;;10.49;90.06;99737.63;6297064;28;20052;-79
2022/02/14 10:42:36;;;;;;;2.83;0.82;;;;;;;10.29;88.82;99738.97;6289035;28;20045;-80
2022/02/14 10:45:37;;;;;;;0.80;0.70;;;;;;;10.39;89.18;99737.41;6280695;28;20063;-82
2022/02/14 10:48:41;;;;;;;1.13;0.63;;;;;;;10.45;89.78;99732.69;6297611;28;20081;-82
2022/02/14 10:51:44;;;;;;;1.40;0.85;;;;;;;10.49;89.66;99736.75;6272638;28;20045;-81
2022/02/14 10:54:46;;;;;;;3.20;1.00;;;;;;;10.48;89.71;99735.09;6272036;28;20052;-79
2022/02/14 10:57:49;;;;;;;0.95;0.80;;;;;;;10.61;88.76;99739.38;6272774;28;20123;-79
2022/02/14 11:00:50;;;;;;;1.67;0.95;;;;;;;10.60;89.61;99745.59;6271838;28;20045;-77
2022/02/14 11:03:53;;;;;;;0.68;0.68;;;;;;;10.54;90.31;99732.06;6271537;28;20048;-77
2022/02/14 11:06:56;;;;;;;2.25;0.88;;;;;;;10.61;88.22;99738.56;6271744;28;20045;-78
2022/02/14 11:10:01;;;;;;;2.40;1.08;;;;;;;10.78;88.27;99738.22;6271444;28;20397;-78
2022/02/14 11:13:03;;;;;;;1.40;0.75;;;;;;;10.78;88.56;99740.00;6272216;28;20049;-77
2022/02/14 11:16:06;;;;;;;1.63;0.93;;;;;;;10.72;89.45;99743.91;6283940;28;20052;-78
2022/02/14 11:19:10;;;;;;;0.77;0.70;;;;;;;10.72;89.35;99745.66;6296870;28;20052;-80
2022/02/14 11:22:13;;;;;;;2.42;0.98;;;;;;;10.69;91.58;99751.16;6276742;28;20077;-81
2022/02/14 11:25:23;;;;;;;1.90;1.67;;;;;;;10.56;90.93;99741.50;6284113;28;20053;-79
2022/02/14 11:28:31;;;;;;;1.73;1.00;;;;;;;10.52;90.62;99737.41;6277363;28;20056;-78
2022/02/14 11:31:33;;;;;;;1.48;1.00;;;;;;;10.43;91.00;99737.19;6276106;28;20264;-77
2022/02/14 11:35:02;;;;;;;1.55;0.80;;;;;;;10.40;92.47;99746.13;6276874;28;20051;-78
2022/02/14 11:38:05;;;;;;;2.05;1.13;;;;;;;10.32;94.09;99748.44;6276748;28;20540;-77
2022/02/14 11:41:26;;;;;;;0.63;0.63;;;;;;;10.31;93.69;99747.63;6284499;28;20066;-77
2022/02/14 11:44:27;;;;;;;2.28;1.05;;;;;;;10.31;94.16;99752.00;6282370;28;20428;-79
2022/02/14 11:47:34;;;;;;;1.58;0.80;;;;;;;10.30;93.46;99747.69;6275799;28;20053;-75
2022/02/14 11:50:42;;;;;;;3.65;2.15;;;;;;;10.20;95.41;99736.13;6275590;28;20056;-77
2022/02/14 11:53:45;;;;;;;2.97;1.43;;;;;;;10.15;96.24;99742.50;6283359;28;20055;-77
2022/02/14 11:56:46;;;;;;;0.73;0.70;;;;;;;10.14;95.82;99737.38;6295193;28;20286;-77
2022/02/14 11:59:50;;;;;;;0.80;0.80;;;;;;;10.19;97.40;99735.28;6285910;28;20114;-77
2022/02/14 12:03:00;;;;;;;0.70;0.70;;;;;;;10.35;96.38;99730.69;6275005;28;20523;-77
2022/02/14 12:06:04;;;;;;;1.73;1.10;;;;;;;10.52;95.72;99742.66;6275572;28;20044;-78
2022/02/14 12:09:07;;;;;;;3.13;0.90;;;;;;;10.68;95.32;99734.56;6278844;28;20171;-79
2022/02/14 12:12:08;;;;;;;1.30;0.80;;;;;;;10.72;94.84;99738.66;6283697;28;20049;-79
2022/02/14 12:22:23;;;;;;;1.55;0.82;;;;;;;10.74;97.08;99742.00;6278866;28;20093;-79
2022/02/14 12:25:25;;;;;;;7.30;1.27;;;;;;;10.75;96.18;99742.84;6275036;28;20055;-76
2022/02/14 12:28:27;;;;;;;1.77;0.77;;;;;;;10.86;95.26;99740.31;6274618;28;20052;-76
2022/02/14 12:31:29;;;;;;;2.30;0.77;;;;;;;10.72;97.50;99740.41;6274399;28;20049;-77
2022/02/14 12:34:33;;;;;;;1.02;0.80;;;;;;;10.69;99.12;99736.22;6274040;28;20060;-77
2022/02/14 12:37:37;;;;;;;1.23;1.00;;;;;;;10.54;100.00;99740.78;6275105;28;20045;-76
2022/02/14 12:40:45;;;;;;;1.83;0.73;;;;;;;10.45;100.00;99743.22;6274223;28;20144;-77
2022/02/14 12:43:49;;;;;;;1.23;0.70;;;;;;;10.37;100.00;99747.19;6274508;28;20052;-76
2022/02/14 12:46:51;;;;;;;0.80;0.80;;;;;;;10.29;100.00;99748.66;6274482;28;20407;-76
2022/02/14 12:50:09;;;;;;;2.03;1.20;;;;;;;10.25;100.00;99758.50;6274160;28;20045;-77
2022/02/14 12:53:11;;;;;;;1.15;0.63;;;;;;;10.16;100.00;99751.22;6273869;28;20056;-77
2022/02/14 12:56:16;;;;;;;0.75;0.63;;;;;;;10.23;100.00;99749.03;6274260;28;20060;-77
2022/02/14 12:59:18;;;;;;;1.75;0.90;;;;;;;10.37;100.00;99751.59;6274077;28;20099;-78
2022/02/14 13:02:20;;;;;;;1.30;1.00;;;;;;;10.47;100.00;99763.16;6273881;28;20044;-76
2022/02/14 13:05:21;;;;;;;0.98;0.88;;;;;;;10.65;100.00;99763.66;6273729;28;20041;-77
2022/02/14 13:08:26;;;;;;;0.98;0.77;;;;;;;10.77;100.00;99752.31;6273660;28;20447;-78
2022/02/14 13:11:27;;;;;;;3.78;0.80;;;;;;;10.88;99.11;99757.63;6273248;28;20052;-77
2022/02/14 13:14:33;;;;;;;2.95;0.80;;;;;;;10.93;99.13;99754.69;6273332;28;20397;-78
2022/02/14 13:17:35;;;;;;;0.68;0.52;;;;;;;11.01;98.36;99739.22;6273478;28;20075;-78
2022/02/14 13:20:37;;;;;;;0.93;0.68;;;;;;;11.01;97.74;99751.53;6273490;28;20056;-78
2022/02/14 13:23:40;;;;;;;1.45;0.80;;;;;;;11.10;97.51;99745.59;6283633;28;20055;-77
2022/02/14 13:26:41;;;;;;;3.13;0.75;;;;;;;11.14;97.19;99750.53;6284324;28;20626;-76
2022/02/14 13:29:45;;;;;;;1.30;0.77;;;;;;;11.24;96.40;99755.97;6292857;28;20047;-79
2022/02/14 13:32:48;;;;;;;0.93;0.68;;;;;;;11.32;96.29;99753.63;6297654;28;20389;-78
2022/02/14 13:35:50;;;;;;;1.65;1.23;;;;;;;11.37;96.74;99756.78;6275915;28;20055;-79
2022/02/14 13:38:54;;;;;;;5.03;1.20;;;;;;;11.35;96.81;99750.75;6281998;28;20488;-78
2022/02/14 13:41:55;;;;;;;0.95;0.68;;;;;;;11.35;96.88;99747.28;6273076;28;20056;-78
2022/02/14 13:44:58;;;;;;;4.68;1.00;;;;;;;11.28;97.40;99746.06;6273366;28;20060;-77
2022/02/14 13:48:19;;;;;;;0.93;0.70;;;;;;;11.16;98.29;99755.69;6272139;28;20059;-78
2022/02/14 13:51:23;;;;;;;0.60;0.60;;;;;;;11.20;95.55;99756.31;6286548;28;20064;-77
2022/02/14 13:54:26;;;;;;;1.95;0.88;;;;;;;11.07;97.26;99761.59;6279127;28;20048;-76
2022/02/14 13:57:28;;;;;;;1.30;0.90;;;;;;;10.96;97.41;99765.00;6283374;28;20436;-77
2022/02/14 14:00:35;;;;;;;4.25;1.27;;;;;;;10.84;99.79;99766.69;6283142;28;20138;-75
2022/02/14 14:03:36;;;;;;;0.80;0.80;;;;;;;10.57;100.00;99785.22;6286610;28;20053;-74
2022/02/14 14:06:38;;;;;;;0.60;0.60;;;;;;;10.24;100.00;99787.47;6284820;28;20471;-76
2022/02/14 14:09:43;;;;;;;2.53;0.60;;;;;;;9.95;100.00;99787.66;6291500;28;20041;-75
2022/02/14 14:12:51;;;;;;;0.93;0.70;;;;;;;9.63;100.00;99810.75;6296959;28;20053;-75
2022/02/14 14:15:52;;;;;;;1.98;1.00;;;;;;;9.23;100.00;99813.28;6297882;28;20550;-76
2022/02/14 14:18:54;;;;;;;1.75;1.00;;;;;;;8.95;100.00;99810.66;6297173;28;20053;-77
2022/02/14 14:21:55;;;;;;;2.20;1.02;;;;;;;8.70;100.00;99820.03;6297746;28;20059;-76
2022/02/14 14:25:00;;;;;;;1.88;1.30;;;;;;;8.56;100.00;99815.63;6296871;28;20435;-77
2022/02/14 14:28:01;;;;;;;1.27;1.17;;;;;;;8.58;100.00;99819.00;6297300;28;20052;-77
2022/02/14 14:31:02;;;;;;;1.60;1.05;;;;;;;8.67;100.00;99817.56;6283259;28;20045;-77
2022/02/14 14:34:04;;;;;;;2.83;1.77;;;;;;;8.69;100.00;99825.38;6274994;28;20049;-77